Time;durP1;ratioP1;P1;durP2;ratioP2;P2;SDS_P1;SDS_P2;PMS_P1;PMS_P2;Temp;Humidity;BMP_temperature;BMP_pressure;BME280_temperature;BME280_humidity;BME280_pressure;Samples;Min_cycle;Max_cycle;Signal;HPM_P1;HPM_P2
2021/05/12 00:01:06;;;;;;;8.70;3.63;;;;;;;;;;8275194;28;20060;-70
2021/05/12 00:05:11;;;;;;;7.00;3.42;;;;;;;;;;8293119;28;20475;-70
2021/05/12 00:09:16;;;;;;;10.65;3.60;;;;;;;;;;8294709;28;20457;-72
2021/05/12 00:13:20;;;;;;;7.72;3.20;;;;;;;;;;8292913;28;20588;-70
2021/05/12 00:17:27;;;;;;;9.27;3.72;;;;;;;;;;8292616;28;20383;-70
2021/05/12 00:21:36;;;;;;;12.30;3.90;;;;;;;;;;8291921;28;20382;-71
2021/05/12 00:25:41;;;;;;;8.50;3.28;;;;;;;;;;8292707;28;20490;-71
2021/05/12 00:29:46;;;;;;;5.03;2.92;;;;;;;;;;8274702;28;20048;-70
2021/05/12 00:33:51;;;;;;;6.72;3.45;;;;;;;;;;8291002;28;20376;-71
2021/05/12 00:37:56;;;;;;;9.20;3.25;;;;;;;;;;8274049;28;20356;-70
2021/05/12 00:42:01;;;;;;;7.38;2.80;;;;;;;;;;8274569;28;20391;-70
2021/05/12 00:46:07;;;;;;;7.90;3.15;;;;;;;;;;8274387;28;20485;-70
2021/05/12 00:50:12;;;;;;;9.45;2.90;;;;;;;;;;8274305;28;20577;-70
2021/05/12 00:54:16;;;;;;;6.80;3.58;;;;;;;;;;8273624;28;20475;-73
2021/05/12 00:58:21;;;;;;;8.23;3.35;;;;;;;;;;8290957;28;20475;-70
2021/05/12 01:02:26;;;;;;;6.05;2.80;;;;;;;;;;8294220;28;20383;-70
2021/05/12 01:06:38;;;;;;;4.15;2.80;;;;;;;;;;8321442;28;20382;-70
2021/05/12 01:10:52;;;;;;;7.20;2.90;;;;;;;;;;8291791;28;20078;-71
2021/05/12 01:14:57;;;;;;;8.55;2.90;;;;;;;;;;8306547;28;20052;-71
2021/05/12 01:19:02;;;;;;;4.55;2.90;;;;;;;;;;8323850;28;20376;-70
2021/05/12 01:23:07;;;;;;;6.68;3.35;;;;;;;;;;8323597;28;20389;-70
2021/05/12 01:27:12;;;;;;;6.30;3.38;;;;;;;;;;8321844;28;20082;-70
2021/05/12 01:31:21;;;;;;;6.10;3.30;;;;;;;;;;8323439;28;20521;-71
2021/05/12 01:35:27;;;;;;;7.03;3.10;;;;;;;;;;8323612;28;20467;-70
2021/05/12 01:39:32;;;;;;;6.82;2.97;;;;;;;;;;8323224;28;20486;-71
2021/05/12 01:43:38;;;;;;;12.25;3.53;;;;;;;;;;8306168;28;20056;-70
2021/05/12 01:47:42;;;;;;;6.68;3.45;;;;;;;;;;8324524;28;20451;-71
2021/05/12 01:51:48;;;;;;;7.90;3.25;;;;;;;;;;8306978;28;20374;-70
2021/05/12 01:55:54;;;;;;;5.53;3.00;;;;;;;;;;8305621;28;20467;-71
2021/05/12 01:59:59;;;;;;;8.02;3.08;;;;;;;;;;8322968;28;20458;-70
2021/05/12 02:04:08;;;;;;;;;;;;;;;;;;8323836;28;20458;-70
2021/05/12 02:08:17;;;;;;;5.72;3.25;;;;;;;;;;8322353;28;20249;-72
2021/05/12 02:12:21;;;;;;;17.42;3.35;;;;;;;;;;8324452;28;20082;-70
2021/05/12 02:16:26;;;;;;;8.02;2.70;;;;;;;;;;8325054;28;20343;-70
2021/05/12 02:20:34;;;;;;;9.75;3.47;;;;;;;;;;8322585;28;20394;-72
2021/05/12 02:24:39;;;;;;;6.20;3.28;;;;;;;;;;8305092;28;20386;-70
2021/05/12 02:28:44;;;;;;;8.82;3.10;;;;;;;;;;8322563;28;20438;-69
2021/05/12 02:32:49;;;;;;;3.72;2.67;;;;;;;;;;8320084;28;20635;-69
2021/05/12 02:36:54;;;;;;;6.03;2.90;;;;;;;;;;8305733;28;20474;-70
2021/05/12 02:40:59;;;;;;;10.07;3.10;;;;;;;;;;8324593;28;20454;-70
2021/05/12 02:45:08;;;;;;;6.53;2.58;;;;;;;;;;8329835;28;20052;-70
2021/05/12 02:49:14;;;;;;;6.50;2.92;;;;;;;;;;8310940;28;20473;-70
2021/05/12 02:53:21;;;;;;;7.38;3.33;;;;;;;;;;8329595;28;20477;-71
2021/05/12 02:57:26;;;;;;;8.95;4.50;;;;;;;;;;8328661;28;20447;-70
2021/05/12 03:01:30;;;;;;;5.55;2.90;;;;;;;;;;8329277;28;20336;-70
2021/05/12 03:05:37;;;;;;;5.88;3.40;;;;;;;;;;8327665;28;20366;-70
2021/05/12 03:09:42;;;;;;;7.30;3.00;;;;;;;;;;8311035;28;20356;-71
2021/05/12 03:13:47;;;;;;;10.70;3.03;;;;;;;;;;8328770;28;20490;-70
2021/05/12 03:17:54;;;;;;;12.02;3.28;;;;;;;;;;8326466;28;20455;-72
2021/05/12 03:21:59;;;;;;;5.45;2.72;;;;;;;;;;8309650;28;20351;-70
2021/05/12 03:26:04;;;;;;;5.53;3.10;;;;;;;;;;8309661;28;20371;-76
2021/05/12 03:30:20;;;;;;;7.63;2.90;;;;;;;;;;8329489;28;20383;-70
2021/05/12 03:34:25;;;;;;;3.47;2.53;;;;;;;;;;8326633;28;20083;-70
2021/05/12 03:38:29;;;;;;;8.75;3.40;;;;;;;;;;8326147;28;20359;-71
2021/05/12 03:42:34;;;;;;;9.23;3.17;;;;;;;;;;8329523;28;20048;-70
2021/05/12 03:46:42;;;;;;;;;;;;;;;;;;8326181;28;20467;-71
2021/05/12 03:50:47;;;;;;;5.75;3.05;;;;;;;;;;8326044;28;20327;-70
2021/05/12 03:54:52;;;;;;;10.45;4.50;;;;;;;;;;8328764;28;20365;-70
2021/05/12 03:58:57;;;;;;;6.40;3.15;;;;;;;;;;8325959;28;20461;-72
2021/05/12 04:03:02;;;;;;;6.50;2.90;;;;;;;;;;8324960;28;20451;-70
2021/05/12 04:07:07;;;;;;;3.92;2.63;;;;;;;;;;8308460;28;20474;-70
2021/05/12 04:11:13;;;;;;;5.03;3.00;;;;;;;;;;8324398;28;20481;-71
2021/05/12 04:15:18;;;;;;;6.72;2.85;;;;;;;;;;8326293;28;20364;-70
2021/05/12 04:19:22;;;;;;;7.82;2.88;;;;;;;;;;8327566;28;20375;-70
2021/05/12 04:23:27;;;;;;;7.22;2.35;;;;;;;;;;8327405;28;20469;-71
2021/05/12 04:27:32;;;;;;;8.00;2.78;;;;;;;;;;8326404;28;20454;-70
2021/05/12 04:31:37;;;;;;;5.45;3.00;;;;;;;;;;8327016;28;20668;-70
2021/05/12 04:35:41;;;;;;;7.63;3.03;;;;;;;;;;8324240;28;20359;-72
2021/05/12 04:39:46;;;;;;;8.77;2.92;;;;;;;;;;8324901;28;20505;-70
2021/05/12 04:43:54;;;;;;;7.78;2.60;;;;;;;;;;8325062;28;20060;-70
2021/05/12 04:47:59;;;;;;;6.00;3.20;;;;;;;;;;8326704;28;20450;-70
2021/05/12 04:52:04;;;;;;;7.00;2.50;;;;;;;;;;8325968;28;20442;-70
2021/05/12 04:56:09;;;;;;;8.05;2.67;;;;;;;;;;8324417;28;20332;-71
2021/05/12 05:00:17;;;;;;;4.75;2.70;;;;;;;;;;8324451;28;20490;-70
2021/05/12 05:04:23;;;;;;;6.25;2.78;;;;;;;;;;8323311;28;20356;-71
2021/05/12 05:08:29;;;;;;;4.55;2.30;;;;;;;;;;8324400;28;20070;-71
2021/05/12 05:12:33;;;;;;;4.72;2.45;;;;;;;;;;8324997;28;20466;-70
2021/05/12 05:16:38;;;;;;;18.38;2.75;;;;;;;;;;8324205;28;20466;-70
2021/05/12 05:20:43;;;;;;;6.03;2.30;;;;;;;;;;8306980;28;20378;-70
2021/05/12 05:24:51;;;;;;;8.45;2.30;;;;;;;;;;8323634;28;20052;-70
2021/05/12 05:28:57;;;;;;;3.55;1.70;;;;;;;;;;8307485;28;20443;-69
2021/05/12 05:33:03;;;;;;;5.85;1.67;;;;;;;;;;8322946;28;20383;-69
2021/05/12 05:37:28;;;;;;;3.92;2.20;;;;;;;;;;8325055;28;20358;-71
2021/05/12 05:41:55;;;;;;;3.83;1.80;;;;;;;;;;8325574;28;20052;-70
2021/05/12 05:46:18;;;;;;;6.65;2.50;;;;;;;;;;8323211;28;20477;-69
2021/05/12 05:50:42;;;;;;;5.60;1.88;;;;;;;;;;8324094;28;20362;-69
2021/05/12 05:55:07;;;;;;;5.43;1.70;;;;;;;;;;8324329;28;20401;-69
2021/05/12 05:59:30;;;;;;;4.90;2.17;;;;;;;;;;8323019;28;20366;-69
2021/05/12 06:03:53;;;;;;;4.97;2.13;;;;;;;;;;8322896;28;20479;-70
2021/05/12 06:08:17;;;;;;;5.03;2.25;;;;;;;;;;8307860;28;20351;-69
2021/05/12 06:12:45;;;;;;;6.60;2.88;;;;;;;;;;8323122;28;20473;-69
2021/05/12 06:17:07;;;;;;;3.17;1.83;;;;;;;;;;8315757;28;20338;-69
2021/05/12 06:21:31;;;;;;;7.40;1.95;;;;;;;;;;8330481;28;20493;-69
2021/05/12 06:25:56;;;;;;;7.78;1.67;;;;;;;;;;8329286;28;20060;-68
2021/05/12 06:30:21;;;;;;;5.95;2.33;;;;;;;;;;8329355;28;20074;-68
2021/05/12 06:34:45;;;;;;;4.15;2.05;;;;;;;;;;8327595;28;20487;-69
2021/05/12 06:39:07;;;;;;;4.10;1.90;;;;;;;;;;8300386;28;20451;-68
2021/05/12 06:43:13;;;;;;;5.40;2.20;;;;;;;;;;8330798;28;20462;-69
2021/05/12 06:47:18;;;;;;;4.30;1.50;;;;;;;;;;8331081;28;20051;-68
2021/05/12 06:51:22;;;;;;;4.95;1.98;;;;;;;;;;8333345;28;20074;-68
2021/05/12 06:55:28;;;;;;;5.43;1.92;;;;;;;;;;8328729;28;20455;-69
2021/05/12 06:59:32;;;;;;;3.72;1.83;;;;;;;;;;8329791;28;20362;-69
2021/05/12 07:03:37;;;;;;;3.20;1.30;;;;;;;;;;8328914;28;20371;-69
2021/05/12 07:07:45;;;;;;;2.00;1.40;;;;;;;;;;8311440;28;20110;-69
2021/05/12 07:11:50;;;;;;;2.85;1.60;;;;;;;;;;8312011;28;20137;-70
2021/05/12 07:15:56;;;;;;;2.00;1.25;;;;;;;;;;8313892;28;20482;-69
2021/05/12 07:20:02;;;;;;;5.45;1.80;;;;;;;;;;8330877;28;20074;-68
2021/05/12 07:24:08;;;;;;;1.77;1.08;;;;;;;;;;8329663;28;20466;-69
2021/05/12 07:28:14;;;;;;;3.27;1.17;;;;;;;;;;8327198;28;20503;-68
2021/05/12 07:32:17;;;;;;;3.05;1.25;;;;;;;;;;8330598;28;20360;-70
2021/05/12 07:36:23;;;;;;;3.50;1.10;;;;;;;;;;8312706;28;20055;-68
2021/05/12 07:40:31;;;;;;;1.98;0.93;;;;;;;;;;8328701;28;20450;-69
2021/05/12 07:44:36;;;;;;;3.22;1.20;;;;;;;;;;8329961;28;20485;-68
2021/05/12 07:48:41;;;;;;;4.35;1.05;;;;;;;;;;8326491;28;20497;-69
2021/05/12 07:52:46;;;;;;;1.90;1.02;;;;;;;;;;8326854;28;20398;-69
2021/05/12 07:56:51;;;;;;;2.40;0.98;;;;;;;;;;8310739;28;20375;-69
2021/05/12 08:01:03;;;;;;;2.67;1.30;;;;;;;;;;8330302;28;20081;-68
2021/05/12 08:05:08;;;;;;;1.20;0.70;;;;;;;;;;8328762;28;20394;-69
2021/05/12 08:09:13;;;;;;;1.95;1.00;;;;;;;;;;8325796;28;20389;-69
2021/05/12 08:13:18;;;;;;;3.20;1.15;;;;;;;;;;8326322;28;20439;-70
2021/05/12 08:17:23;;;;;;;6.43;1.05;;;;;;;;;;8328878;28;20455;-68
2021/05/12 08:21:28;;;;;;;3.87;0.97;;;;;;;;;;8330188;28;20078;-69
2021/05/12 08:25:33;;;;;;;9.35;1.80;;;;;;;;;;8329278;28;20059;-69
2021/05/12 08:29:40;;;;;;;3.63;0.93;;;;;;;;;;8329992;28;20390;-68
2021/05/12 08:33:45;;;;;;;3.30;1.33;;;;;;;;;;8330430;28;20082;-69
2021/05/12 08:37:51;;;;;;;13.30;1.40;;;;;;;;;;8309409;28;20474;-69
2021/05/12 08:41:56;;;;;;;;;;;;;;;;;;8325439;28;20371;-70
2021/05/12 08:46:01;;;;;;;2.57;1.30;;;;;;;;;;8309744;28;20333;-69
2021/05/12 08:50:09;;;;;;;7.68;2.05;;;;;;;;;;8326907;28;20501;-69
2021/05/12 08:54:14;;;;;;;2.08;1.17;;;;;;;;;;8307913;28;20443;-69
2021/05/12 08:58:19;;;;;;;3.47;1.20;;;;;;;;;;8306911;28;20447;-70
2021/05/12 09:02:24;;;;;;;4.68;1.50;;;;;;;;;;8324358;28;20816;-69
2021/05/12 09:06:29;;;;;;;4.35;1.50;;;;;;;;;;8323624;28;20335;-69
2021/05/12 09:10:33;;;;;;;10.23;1.58;;;;;;;;;;8306528;28;20367;-69
2021/05/12 09:14:40;;;;;;;3.05;1.50;;;;;;;;;;8322582;28;20486;-69
2021/05/12 09:18:44;;;;;;;2.30;1.30;;;;;;;;;;8324227;28;20366;-69
2021/05/12 09:23:14;;;;;;;5.82;1.20;;;;;;;;;;8307993;28;20395;-69
2021/05/12 09:27:23;;;;;;;5.15;1.40;;;;;;;;;;8323798;28;20364;-69
2021/05/12 09:31:38;;;;;;;2.67;1.50;;;;;;;;;;8325372;28;20485;-69
2021/05/12 09:35:45;;;;;;;2.35;1.30;;;;;;;;;;8290982;28;20056;-69
2021/05/12 09:39:50;;;;;;;5.90;1.58;;;;;;;;;;8293482;28;20406;-69
2021/05/12 09:43:55;;;;;;;3.53;1.60;;;;;;;;;;8292215;28;20371;-69
2021/05/12 09:48:03;;;;;;;3.80;1.75;;;;;;;;;;8295596;28;20447;-69
2021/05/12 09:52:08;;;;;;;5.25;2.15;;;;;;;;;;8292273;28;20468;-69
2021/05/12 09:56:13;;;;;;;3.70;1.50;;;;;;;;;;8293188;28;20459;-69
2021/05/12 10:00:30;;;;;;;4.53;1.70;;;;;;;;;;8295328;28;20379;-70
2021/05/12 10:04:38;;;;;;;4.38;1.58;;;;;;;;;;8297084;28;20410;-69
2021/05/12 10:08:43;;;;;;;3.90;1.80;;;;;;;;;;8294595;28;20074;-69
2021/05/12 10:12:48;;;;;;;7.18;1.70;;;;;;;;;;8290553;28;20459;-69
2021/05/12 10:16:53;;;;;;;6.10;1.70;;;;;;;;;;8293025;28;20382;-68
2021/05/12 10:21:00;;;;;;;3.20;1.52;;;;;;;;;;8293318;28;20374;-69
2021/05/12 10:25:06;;;;;;;3.58;1.60;;;;;;;;;;8291624;28;20498;-69
2021/05/12 10:29:18;;;;;;;9.70;1.75;;;;;;;;;;8292172;28;20418;-69
2021/05/12 10:33:47;;;;;;;3.75;1.63;;;;;;;;;;8294847;28;20473;-70
2021/05/12 10:37:56;;;;;;;2.20;1.40;;;;;;;;;;8325370;28;20370;-68
2021/05/12 10:42:01;;;;;;;7.78;1.50;;;;;;;;;;8324524;28;20497;-68
2021/05/12 10:46:12;;;;;;;4.50;1.42;;;;;;;;;;8323777;28;20485;-68
2021/05/12 10:50:16;;;;;;;7.40;1.67;;;;;;;;;;8307677;28;20359;-70
2021/05/12 10:54:42;;;;;;;8.00;1.73;;;;;;;;;;8322302;28;20373;-69
2021/05/12 10:58:59;;;;;;;5.43;1.50;;;;;;;;;;8323770;28;20439;-68
2021/05/12 11:03:07;;;;;;;4.80;1.25;;;;;;;;;;8326949;28;20504;-68
2021/05/12 11:07:18;;;;;;;8.60;1.40;;;;;;;;;;8330387;28;20074;-68
2021/05/12 11:11:23;;;;;;;3.67;1.30;;;;;;;;;;8294740;28;20459;-68
2021/05/12 11:15:57;;;;;;;4.60;1.33;;;;;;;;;;8327083;28;20481;-68
2021/05/12 11:20:17;;;;;;;2.75;1.20;;;;;;;;;;8310955;28;20409;-68
2021/05/12 11:24:22;;;;;;;3.92;1.33;;;;;;;;;;8330646;28;20494;-68
2021/05/12 11:32:41;;;;;;;3.80;1.35;;;;;;;;;;8331270;28;20055;-68
2021/05/12 11:36:45;;;;;;;5.53;1.63;;;;;;;;;;8264131;28;20406;-67
2021/05/12 11:40:59;;;;;;;7.72;1.30;;;;;;;;;;8263810;28;20072;-69
2021/05/12 11:45:16;;;;;;;7.43;1.63;;;;;;;;;;8265812;28;20501;-70
2021/05/12 11:49:29;;;;;;;4.40;1.30;;;;;;;;;;8264605;28;20463;-70
2021/05/12 11:53:40;;;;;;;4.70;1.92;;;;;;;;;;8266566;28;20057;-69
2021/05/12 11:57:46;;;;;;;4.03;1.77;;;;;;;;;;8262807;28;20437;-68
2021/05/12 12:02:01;;;;;;;7.70;1.42;;;;;;;;;;8262408;28;20479;-69
2021/05/12 12:06:06;;;;;;;1.95;1.25;;;;;;;;;;8263855;28;20075;-69
2021/05/12 12:10:12;;;;;;;2.92;1.63;;;;;;;;;;8261476;28;20379;-68
2021/05/12 12:14:17;;;;;;;3.40;1.30;;;;;;;;;;8264105;28;20379;-68
2021/05/12 12:18:32;;;;;;;3.08;1.42;;;;;;;;;;8260222;28;20052;-69
2021/05/12 12:22:48;;;;;;;4.45;1.40;;;;;;;;;;8259095;28;20387;-69
2021/05/12 12:26:57;;;;;;;5.32;1.45;;;;;;;;;;8259485;28;20053;-70
2021/05/12 12:31:02;;;;;;;3.63;1.58;;;;;;;;;;8259252;28;20103;-69
2021/05/12 12:35:09;;;;;;;3.75;1.40;;;;;;;;;;8298470;28;20478;-69
2021/05/12 12:39:14;;;;;;;3.22;1.23;;;;;;;;;;8324798;28;20070;-70
2021/05/12 12:43:22;;;;;;;4.88;1.27;;;;;;;;;;8308607;28;20078;-72
2021/05/12 12:47:28;;;;;;;7.05;1.33;;;;;;;;;;8327291;28;20350;-68
2021/05/12 12:51:41;;;;;;;3.05;1.00;;;;;;;;;;8324801;28;20367;-69
2021/05/12 12:55:45;;;;;;;2.55;1.38;;;;;;;;;;8326208;28;20447;-69
2021/05/12 13:00:00;;;;;;;4.32;1.20;;;;;;;;;;8324422;28;20047;-67
2021/05/12 13:04:21;;;;;;;2.63;0.90;;;;;;;;;;8325690;28;20352;-67
2021/05/12 13:08:31;;;;;;;1.98;1.20;;;;;;;;;;8324376;28;20585;-67
2021/05/12 13:12:39;;;;;;;2.30;1.08;;;;;;;;;;8323761;28;20362;-68
2021/05/12 13:16:42;;;;;;;4.18;1.40;;;;;;;;;;8323291;28;20512;-68
2021/05/12 13:21:07;;;;;;;3.53;1.33;;;;;;;;;;8324546;28;20048;-68
2021/05/12 13:25:13;;;;;;;2.83;1.50;;;;;;;;;;8323747;28;20051;-68
2021/05/12 13:29:19;;;;;;;1.88;1.30;;;;;;;;;;8322482;28;20128;-69
2021/05/12 13:33:27;;;;;;;2.20;1.52;;;;;;;;;;8324345;28;20481;-68
2021/05/12 13:37:32;;;;;;;2.70;1.58;;;;;;;;;;8324849;28;20466;-69
2021/05/12 13:41:37;;;;;;;3.30;1.70;;;;;;;;;;8324089;28;20379;-69
2021/05/12 13:45:42;;;;;;;7.32;1.40;;;;;;;;;;8324087;28;20463;-69
2021/05/12 13:49:47;;;;;;;3.25;1.58;;;;;;;;;;8325284;28;20071;-69
2021/05/12 13:53:56;;;;;;;1.83;1.33;;;;;;;;;;8324993;28;20377;-68
2021/05/12 13:58:30;;;;;;;1.90;1.20;;;;;;;;;;8328339;28;20370;-69
2021/05/12 14:02:48;;;;;;;6.15;1.92;;;;;;;;;;8326240;28;20473;-69
2021/05/12 14:06:54;;;;;;;3.88;1.52;;;;;;;;;;8324914;28;20461;-68
2021/05/12 14:11:01;;;;;;;2.97;1.83;;;;;;;;;;8324025;28;20359;-69
2021/05/12 14:15:24;;;;;;;12.35;2.25;;;;;;;;;;8323620;28;20371;-68
2021/05/12 14:19:29;;;;;;;4.43;1.90;;;;;;;;;;8322839;28;20455;-69
2021/05/12 14:23:34;;;;;;;4.05;1.98;;;;;;;;;;8322150;28;20474;-69
2021/05/12 14:27:40;;;;;;;4.15;1.38;;;;;;;;;;8322454;28;20360;-69
2021/05/12 14:31:47;;;;;;;3.90;1.80;;;;;;;;;;8324378;28;20469;-68
2021/05/12 14:35:51;;;;;;;6.03;1.45;;;;;;;;;;8326674;28;20382;-69
2021/05/12 14:39:57;;;;;;;4.57;1.45;;;;;;;;;;8329241;28;20074;-69
2021/05/12 14:44:02;;;;;;;3.80;1.10;;;;;;;;;;8329267;28;20386;-69
2021/05/12 14:48:09;;;;;;;5.13;2.00;;;;;;;;;;8329030;28;20351;-69
2021/05/12 14:52:20;;;;;;;11.18;1.52;;;;;;;;;;8329961;28;20040;-69
2021/05/12 14:56:35;;;;;;;3.05;1.15;;;;;;;;;;8328100;28;20385;-69
2021/05/12 15:00:48;;;;;;;6.57;1.10;;;;;;;;;;8328993;28;20489;-69
2021/05/12 15:05:09;;;;;;;3.72;1.10;;;;;;;;;;8328543;28;20587;-69
2021/05/12 15:09:14;;;;;;;2.40;1.23;;;;;;;;;;8327344;28;20383;-69
2021/05/12 15:13:19;;;;;;;7.57;1.10;;;;;;;;;;8327917;28;20121;-69
2021/05/12 15:17:24;;;;;;;6.05;1.00;;;;;;;;;;8328825;28;20371;-69
2021/05/12 15:21:29;;;;;;;4.00;1.05;;;;;;;;;;8329862;28;20379;-69
2021/05/12 15:25:34;;;;;;;5.82;1.50;;;;;;;;;;8329017;28;20409;-68
2021/05/12 15:29:39;;;;;;;4.93;0.90;;;;;;;;;;8327274;28;20384;-69
2021/05/12 15:33:44;;;;;;;4.78;1.20;;;;;;;;;;8309184;28;20402;-69
2021/05/12 15:37:49;;;;;;;2.85;1.27;;;;;;;;;;8327491;28;20351;-69
2021/05/12 15:41:54;;;;;;;4.68;1.02;;;;;;;;;;8328197;28;20367;-70
2021/05/12 15:45:59;;;;;;;5.75;1.10;;;;;;;;;;8326548;28;20386;-69
2021/05/12 15:50:06;;;;;;;9.93;1.42;;;;;;;;;;8326515;28;20501;-69
2021/05/12 15:54:12;;;;;;;2.47;1.10;;;;;;;;;;8326784;28;20506;-70
2021/05/12 15:58:17;;;;;;;5.00;1.00;;;;;;;;;;8326362;28;20486;-69
2021/05/12 16:02:22;;;;;;;2.10;0.80;;;;;;;;;;8325843;28;20651;-69
2021/05/12 16:06:27;;;;;;;3.95;1.00;;;;;;;;;;8324544;28;20477;-69
2021/05/12 16:10:35;;;;;;;11.15;1.10;;;;;;;;;;8325749;28;20465;-69
2021/05/12 16:14:40;;;;;;;3.95;1.02;;;;;;;;;;8326524;28;20380;-69
2021/05/12 16:18:45;;;;;;;4.28;1.08;;;;;;;;;;8307674;28;20074;-69
2021/05/12 16:22:51;;;;;;;4.38;1.20;;;;;;;;;;8326442;28;20443;-69
2021/05/12 16:26:56;;;;;;;5.63;1.17;;;;;;;;;;8324528;28;20416;-70
2021/05/12 16:31:01;;;;;;;1.75;0.90;;;;;;;;;;8325772;28;20344;-70
2021/05/12 16:35:10;;;;;;;4.53;1.00;;;;;;;;;;8324303;28;20398;-69
2021/05/12 16:39:15;;;;;;;1.85;0.90;;;;;;;;;;8326071;28;20459;-68
2021/05/12 16:43:20;;;;;;;4.65;1.10;;;;;;;;;;8325190;28;20386;-68
2021/05/12 16:47:25;;;;;;;8.13;1.50;;;;;;;;;;8325755;28;20435;-69
2021/05/12 16:51:30;;;;;;;5.18;1.00;;;;;;;;;;8325380;28;20462;-69
2021/05/12 16:55:37;;;;;;;7.40;1.02;;;;;;;;;;8326070;28;20482;-69
2021/05/12 16:59:41;;;;;;;2.05;0.95;;;;;;;;;;8323319;28;20091;-69
2021/05/12 17:03:46;;;;;;;3.65;1.00;;;;;;;;;;8324176;28;20398;-68
2021/05/12 17:07:51;;;;;;;13.77;1.95;;;;;;;;;;8324223;28;20052;-70
2021/05/12 17:12:02;;;;;;;8.65;1.48;;;;;;;;;;8323972;28;20352;-69
2021/05/12 17:16:07;;;;;;;4.53;1.30;;;;;;;;;;8308402;28;20463;-68
2021/05/12 17:20:13;;;;;;;2.53;1.20;;;;;;;;;;8324176;28;20370;-69
2021/05/12 17:24:18;;;;;;;8.10;1.30;;;;;;;;;;8306789;28;20355;-69
2021/05/12 17:28:23;;;;;;;6.05;1.40;;;;;;;;;;8326362;28;20071;-69
2021/05/12 17:32:28;;;;;;;2.45;1.10;;;;;;;;;;8324292;28;20312;-69
2021/05/12 17:36:35;;;;;;;4.88;1.30;;;;;;;;;;8323207;28;20431;-68
2021/05/12 17:40:40;;;;;;;6.60;1.05;;;;;;;;;;8322520;28;20082;-69
2021/05/12 17:44:52;;;;;;;9.07;1.40;;;;;;;;;;8323274;28;20489;-68
2021/05/12 17:48:58;;;;;;;7.90;1.50;;;;;;;;;;8323730;28;20105;-69
2021/05/12 17:53:04;;;;;;;13.90;3.50;;;;;;;;;;8322645;28;20489;-69
2021/05/12 17:57:09;;;;;;;10.55;1.80;;;;;;;;;;8323361;28;20078;-69
2021/05/12 18:01:14;;;;;;;6.13;1.45;;;;;;;;;;8324238;28;20490;-69
2021/05/12 18:05:24;;;;;;;5.28;1.85;;;;;;;;;;8323367;28;20413;-69
2021/05/12 18:09:28;;;;;;;4.05;1.08;;;;;;;;;;8307246;28;20355;-68
2021/05/12 18:17:58;;;;;;;10.05;1.50;;;;;;;;;;8306549;28;20448;-69
2021/05/12 18:22:03;;;;;;;6.47;1.52;;;;;;;;;;8330836;28;20455;-69
2021/05/12 18:26:09;;;;;;;7.00;1.67;;;;;;;;;;8328651;28;20409;-69
2021/05/12 18:30:14;;;;;;;6.15;1.95;;;;;;;;;;8329909;28;20486;-70
2021/05/12 18:34:23;;;;;;;4.38;1.70;;;;;;;;;;8328449;28;20368;-71
2021/05/12 18:38:31;;;;;;;7.28;2.05;;;;;;;;;;8331366;28;20067;-70
2021/05/12 18:42:38;;;;;;;5.38;1.90;;;;;;;;;;8329479;28;20371;-70
2021/05/12 18:46:46;;;;;;;3.22;1.42;;;;;;;;;;8311829;28;20055;-69
2021/05/12 18:50:51;;;;;;;18.25;1.98;;;;;;;;;;8328883;28;20363;-69
2021/05/12 18:54:57;;;;;;;9.35;2.13;;;;;;;;;;8328810;28;20379;-69
2021/05/12 18:59:02;;;;;;;9.00;2.35;;;;;;;;;;8329871;28;20060;-68
2021/05/12 19:03:10;;;;;;;4.82;2.30;;;;;;;;;;8330617;28;20455;-69
2021/05/12 19:07:22;;;;;;;;;;;;;;;;;;8326585;28;20477;-70
2021/05/12 19:11:33;;;;;;;6.80;1.70;;;;;;;;;;8329374;28;20254;-70
2021/05/12 19:15:46;;;;;;;8.52;1.88;;;;;;;;;;8328040;28;20370;-70
2021/05/12 19:19:59;;;;;;;5.55;1.52;;;;;;;;;;8329933;28;20396;-70
2021/05/12 19:24:16;;;;;;;7.72;1.70;;;;;;;;;;8328480;28;20320;-68
2021/05/12 19:28:29;;;;;;;5.50;1.63;;;;;;;;;;8327246;28;20497;-70
2021/05/12 19:41:39;;;;;;;11.20;2.17;;;;;;;;;;8245001;28;20459;-68
2021/05/12 19:45:43;;;;;;;7.72;1.90;;;;;;;;;;8262531;28;20483;-68
2021/05/12 19:49:49;;;;;;;9.68;2.15;;;;;;;;;;8261739;28;20467;-69
2021/05/12 19:53:56;;;;;;;8.38;1.90;;;;;;;;;;8262180;28;20333;-69
2021/05/12 19:58:10;;;;;;;12.15;2.28;;;;;;;;;;8261113;28;20464;-71
2021/05/12 20:02:19;;;;;;;5.50;2.30;;;;;;;;;;8260859;28;20471;-69
2021/05/12 20:06:50;;;;;;;6.13;2.15;;;;;;;;;;8261485;28;20371;-69
2021/05/12 20:15:17;;;;;;;7.53;1.67;;;;;;;;;;8261068;28;20391;-70
2021/05/12 20:19:20;;;;;;;8.27;2.58;;;;;;;;;;8261910;28;20476;-69
2021/05/12 20:23:26;;;;;;;10.10;1.77;;;;;;;;;;8260408;28;20503;-69
2021/05/12 20:27:32;;;;;;;7.30;2.05;;;;;;;;;;8261078;28;20660;-69
2021/05/12 20:31:41;;;;;;;9.00;2.13;;;;;;;;;;8259627;28;20075;-70
2021/05/12 20:40:10;;;;;;;8.30;2.10;;;;;;;;;;8326256;28;20359;-68
2021/05/12 20:44:15;;;;;;;13.32;2.45;;;;;;;;;;8309007;28;20484;-69
2021/05/12 20:48:20;;;;;;;6.03;2.03;;;;;;;;;;8327220;28;20067;-69
2021/05/12 20:52:24;;;;;;;13.77;3.60;;;;;;;;;;8325958;28;20344;-68
2021/05/12 20:56:29;;;;;;;7.93;2.20;;;;;;;;;;8325873;28;20340;-70
2021/05/12 21:00:35;;;;;;;10.70;2.53;;;;;;;;;;8327635;28;20052;-69
2021/05/12 21:04:40;;;;;;;5.93;2.28;;;;;;;;;;8325605;28;20449;-69
2021/05/12 21:08:45;;;;;;;14.52;2.90;;;;;;;;;;8326227;28;20369;-70
2021/05/12 21:12:50;;;;;;;6.68;2.30;;;;;;;;;;8306754;28;20471;-71
2021/05/12 21:16:54;;;;;;;4.55;2.53;;;;;;;;;;8324640;28;20459;-70
2021/05/12 21:21:05;;;;;;;8.70;2.67;;;;;;;;;;8324412;28;20359;-69
2021/05/12 21:25:11;;;;;;;9.57;3.20;;;;;;;;;;8325475;28;20367;-69
2021/05/12 21:29:16;;;;;;;10.68;2.90;;;;;;;;;;8325579;28;20363;-70
2021/05/12 21:33:21;;;;;;;5.07;2.78;;;;;;;;;;8322666;28;20478;-69
2021/05/12 21:37:24;;;;;;;8.45;3.53;;;;;;;;;;8323629;28;20784;-70
2021/05/12 21:41:29;;;;;;;8.10;2.72;;;;;;;;;;8323983;28;20477;-69
2021/05/12 21:45:35;;;;;;;6.95;3.05;;;;;;;;;;8324285;28;20466;-69
2021/05/12 21:49:39;;;;;;;10.98;3.05;;;;;;;;;;8325002;28;20482;-70
2021/05/12 21:53:44;;;;;;;13.98;3.80;;;;;;;;;;8323447;28;20478;-69
2021/05/12 21:57:51;;;;;;;12.73;3.00;;;;;;;;;;8324261;28;20463;-71
2021/05/12 22:01:56;;;;;;;8.20;2.85;;;;;;;;;;8323690;28;20070;-69
2021/05/12 22:23:43;;;;;;;12.18;3.45;;;;;;;;;;8322830;28;20468;-70
2021/05/12 22:27:51;;;;;;;12.50;3.33;;;;;;;;;;8324376;28;20467;-69
2021/05/12 22:31:56;;;;;;;9.98;3.05;;;;;;;;;;8322976;28;20503;-69
2021/05/12 22:36:01;;;;;;;8.98;3.30;;;;;;;;;;8323116;28;20477;-70
2021/05/12 22:40:09;;;;;;;8.30;3.25;;;;;;;;;;8304729;28;20478;-70
2021/05/12 22:44:13;;;;;;;15.02;4.05;;;;;;;;;;8322912;28;20474;-69
2021/05/12 22:48:18;;;;;;;8.98;3.60;;;;;;;;;;8324548;28;20455;-70
2021/05/12 22:52:25;;;;;;;9.27;3.33;;;;;;;;;;8322406;28;20363;-70
2021/05/12 22:56:42;;;;;;;7.97;3.80;;;;;;;;;;8324085;28;20458;-69
2021/05/12 23:00:48;;;;;;;7.93;3.92;;;;;;;;;;8310335;28;20397;-69
2021/05/12 23:04:51;;;;;;;7.97;3.42;;;;;;;;;;8328498;28;20467;-70
2021/05/12 23:08:56;;;;;;;12.15;3.40;;;;;;;;;;8328630;28;20462;-69
2021/05/12 23:13:01;;;;;;;8.73;3.65;;;;;;;;;;8330088;28;20052;-70
2021/05/12 23:17:05;;;;;;;9.73;3.40;;;;;;;;;;8328288;28;20386;-70
2021/05/12 23:21:11;;;;;;;6.68;3.28;;;;;;;;;;8328168;28;20481;-69
2021/05/12 23:25:15;;;;;;;9.80;3.20;;;;;;;;;;8327144;28;20461;-69
2021/05/12 23:29:20;;;;;;;13.45;3.35;;;;;;;;;;8329861;28;20467;-69
2021/05/12 23:33:25;;;;;;;7.43;3.63;;;;;;;;;;8328112;28;20387;-69
2021/05/12 23:37:29;;;;;;;13.23;3.88;;;;;;;;;;8326966;28;20451;-70
2021/05/12 23:41:34;;;;;;;16.08;4.80;;;;;;;;;;8327889;28;20519;-69
2021/05/12 23:45:39;;;;;;;6.18;3.35;;;;;;;;;;8327296;28;20476;-70
2021/05/12 23:49:44;;;;;;;15.98;3.92;;;;;;;;;;8327331;28;20455;-69
2021/05/12 23:53:48;;;;;;;5.90;3.72;;;;;;;;;;8325964;28;20402;-69
2021/05/12 23:57:53;;;;;;;7.05;3.72;;;;;;;;;;8326943;28;20471;-70
